Time;durP1;ratioP1;P1;durP2;ratioP2;P2;SDS_P1;SDS_P2;PMS_P1;PMS_P2;Temp;Humidity;BMP_temperature;BMP_pressure;BME280_temperature;BME280_humidity;BME280_pressure;Samples;Min_cycle;Max_cycle;Signal;HPM_P1;HPM_P2
2023/06/22 00:01:18;;;;;;;9.20;4.22;;;22.70;24.90;;;;;;5052761;28;20788;-70
2023/06/22 00:03:44;;;;;;;7.95;4.00;;;22.70;25.20;;;;;;5053318;28;20462;-70
2023/06/22 00:06:10;;;;;;;9.10;4.00;;;22.70;25.10;;;;;;5053111;28;20912;-71
2023/06/22 00:08:35;;;;;;;5.40;4.10;;;22.70;25.10;;;;;;5052510;28;20385;-70
2023/06/22 00:11:01;;;;;;;5.77;4.03;;;22.70;25.00;;;;;;5052472;28;20583;-71
2023/06/22 00:13:26;;;;;;;9.32;4.22;;;22.70;24.80;;;;;;5052781;28;20398;-71
2023/06/22 00:15:52;;;;;;;5.67;4.17;;;22.70;25.00;;;;;;5052644;28;20396;-71
2023/06/22 00:18:18;;;;;;;8.52;4.30;;;22.70;24.60;;;;;;5052917;28;20472;-71
2023/06/22 00:20:45;;;;;;;6.05;3.97;;;22.70;24.80;;;;;;5052936;28;20405;-70
2023/06/22 00:23:11;;;;;;;7.13;4.10;;;22.80;24.00;;;;;;5051636;28;20480;-71
2023/06/22 00:25:37;;;;;;;9.77;4.32;;;22.80;24.20;;;;;;5052993;28;20785;-70
2023/06/22 00:28:04;;;;;;;7.43;4.38;;;22.70;24.30;;;;;;5053039;28;20633;-70
2023/06/22 00:30:31;;;;;;;7.13;4.10;;;22.70;24.70;;;;;;5053169;28;20381;-70
2023/06/22 00:32:57;;;;;;;9.48;4.30;;;22.60;25.20;;;;;;5053081;28;20382;-70
2023/06/22 00:35:22;;;;;;;5.70;4.32;;;22.60;25.20;;;;;;5052888;28;20385;-70
2023/06/22 00:37:48;;;;;;;6.70;4.27;;;22.60;25.40;;;;;;5053364;28;20583;-70
2023/06/22 00:40:14;;;;;;;6.50;4.30;;;22.60;25.70;;;;;;5052805;28;20456;-70
2023/06/22 00:42:40;;;;;;;5.97;4.50;;;22.60;26.00;;;;;;5052837;28;20483;-69
2023/06/22 00:45:07;;;;;;;7.00;4.28;;;22.60;26.30;;;;;;5052386;28;20870;-71
2023/06/22 00:47:34;;;;;;;6.45;4.13;;;22.50;26.90;;;;;;5034655;28;20382;-71
2023/06/22 00:50:00;;;;;;;7.43;4.55;;;22.50;27.20;;;;;;5052028;28;20389;-70
2023/06/22 00:52:29;;;;;;;7.72;4.47;;;22.50;27.10;;;;;;5051684;28;20795;-70
2023/06/22 00:54:56;;;;;;;7.82;5.00;;;22.50;27.30;;;;;;5051195;28;20381;-70
2023/06/22 00:57:25;;;;;;;9.48;5.10;;;22.40;27.70;;;;;;5052790;28;20599;-70
2023/06/22 00:59:51;;;;;;;9.13;5.15;;;22.40;28.30;;;;;;5052266;28;20393;-71
2023/06/22 01:02:16;;;;;;;8.60;4.90;;;22.40;28.70;;;;;;5052908;28;20389;-68
2023/06/22 01:04:42;;;;;;;6.90;4.85;;;22.30;29.00;;;;;;5053385;28;20385;-70
2023/06/22 01:07:28;;;;;;;6.60;4.83;;;22.30;29.30;;;;;;5068311;28;20393;-70
2023/06/22 01:09:59;;;;;;;6.20;4.80;;;22.40;29.50;;;;;;5070693;28;20502;-70
2023/06/22 01:12:29;;;;;;;7.90;5.30;;;22.30;29.70;;;;;;5054584;28;20385;-70
2023/06/22 01:15:04;;;;;;;9.32;5.60;;;22.30;30.00;;;;;;5066834;28;21057;-70
2023/06/22 01:17:32;;;;;;;6.55;4.93;;;22.30;30.80;;;;;;5057337;28;20385;-70
2023/06/22 01:20:00;;;;;;;8.60;5.43;;;22.30;30.90;;;;;;5051477;28;20411;-70
2023/06/22 01:22:30;;;;;;;11.07;6.50;;;22.30;31.20;;;;;;5052003;28;20455;-69
2023/06/22 01:25:09;;;;;;;8.15;5.75;;;22.20;31.50;;;;;;5052138;28;20393;-71
2023/06/22 01:28:05;;;;;;;9.23;6.25;;;22.20;32.00;;;;;;5060424;28;20377;-70
2023/06/22 01:30:33;;;;;;;10.30;5.83;;;22.20;32.60;;;;;;5056920;28;20427;-71
2023/06/22 01:33:03;;;;;;;8.50;6.20;;;22.20;32.90;;;;;;5068950;28;20399;-71
2023/06/22 01:35:29;;;;;;;10.82;6.60;;;22.20;33.50;;;;;;5073744;28;20411;-69
2023/06/22 01:37:55;;;;;;;11.10;6.68;;;22.10;33.90;;;;;;5072441;28;20393;-70
2023/06/22 01:40:21;;;;;;;10.45;6.60;;;22.10;34.40;;;;;;5068627;28;20420;-70
2023/06/22 01:42:48;;;;;;;10.48;6.90;;;22.10;35.40;;;;;;5067501;28;20436;-71
2023/06/22 01:45:14;;;;;;;10.25;7.00;;;22.10;35.10;;;;;;5060372;28;20381;-71
2023/06/22 01:47:40;;;;;;;10.85;7.05;;;22.10;35.50;;;;;;5034499;28;20389;-69
2023/06/22 01:50:06;;;;;;;11.23;6.88;;;22.10;35.80;;;;;;5050823;28;20508;-70
2023/06/22 01:52:33;;;;;;;15.35;7.38;;;22.00;36.30;;;;;;5050718;28;20400;-69
2023/06/22 01:55:00;;;;;;;10.83;7.10;;;22.00;37.00;;;;;;5058699;28;20385;-70
2023/06/22 01:57:26;;;;;;;12.23;7.63;;;21.90;37.20;;;;;;5056131;28;20394;-71
2023/06/22 02:00:00;;;;;;;11.50;7.00;;;22.00;37.30;;;;;;5054504;28;20402;-70
2023/06/22 02:02:38;;;;;;;15.10;7.70;;;22.00;37.20;;;;;;5051322;28;20403;-70
2023/06/22 02:05:07;;;;;;;12.15;7.47;;;22.10;37.40;;;;;;5050521;28;20421;-70
2023/06/22 02:07:42;;;;;;;12.65;8.55;;;22.10;37.30;;;;;;5051502;28;20946;-69
2023/06/22 02:10:12;;;;;;;12.90;7.93;;;22.10;37.40;;;;;;5054537;28;20385;-71
2023/06/22 02:12:38;;;;;;;10.95;8.05;;;22.10;37.70;;;;;;5054195;28;20484;-69
2023/06/22 02:15:04;;;;;;;12.70;8.98;;;22.10;38.50;;;;;;5054225;28;20388;-71
2023/06/22 02:17:33;;;;;;;10.40;8.48;;;22.10;38.40;;;;;;5054505;28;20412;-71
2023/06/22 02:19:58;;;;;;;11.45;8.60;;;22.00;38.70;;;;;;5054728;28;20830;-70
2023/06/22 02:22:24;;;;;;;15.63;8.85;;;22.00;38.90;;;;;;5054482;28;20421;-69
2023/06/22 02:24:49;;;;;;;12.00;9.17;;;22.00;39.00;;;;;;5054428;28;20423;-69
2023/06/22 02:27:15;;;;;;;15.95;10.20;;;22.00;39.30;;;;;;5054879;28;20437;-71
2023/06/22 02:29:40;;;;;;;14.93;10.03;;;22.00;39.60;;;;;;5055023;28;20393;-70
2023/06/22 02:32:06;;;;;;;17.50;10.30;;;22.00;39.80;;;;;;5056257;28;20873;-71
2023/06/22 02:34:33;;;;;;;17.23;10.75;;;22.00;40.30;;;;;;5058617;28;20660;-70
2023/06/22 02:37:00;;;;;;;14.95;9.70;;;21.90;41.00;;;;;;5040724;28;20388;-71
2023/06/22 02:39:26;;;;;;;17.95;10.18;;;21.90;41.20;;;;;;5061406;28;20389;-70
2023/06/22 02:41:53;;;;;;;18.50;10.07;;;21.90;41.50;;;;;;5054474;28;20467;-70
2023/06/22 02:44:19;;;;;;;13.75;10.30;;;21.90;42.00;;;;;;5054025;28;20377;-70
2023/06/22 02:46:45;;;;;;;13.80;10.05;;;21.80;42.40;;;;;;5054038;28;20957;-69
2023/06/22 02:49:11;;;;;;;14.95;10.48;;;21.80;43.00;;;;;;5054059;28;20456;-71
2023/06/22 02:51:39;;;;;;;16.48;10.60;;;21.70;43.70;;;;;;5053955;28;20384;-70
2023/06/22 02:54:06;;;;;;;14.18;10.90;;;21.60;44.10;;;;;;5036536;28;20423;-69
2023/06/22 02:56:31;;;;;;;15.65;10.63;;;21.60;44.60;;;;;;5053938;28;20408;-71
2023/06/22 02:59:01;;;;;;;15.10;11.10;;;21.60;45.00;;;;;;5054496;28;20381;-71
2023/06/22 03:01:39;;;;;;;17.65;12.27;;;21.50;45.40;;;;;;5054382;28;20458;-71
2023/06/22 03:04:06;;;;;;;22.58;11.93;;;21.50;45.60;;;;;;5054012;28;20872;-70
2023/06/22 03:06:31;;;;;;;15.95;11.20;;;21.50;46.30;;;;;;5053862;28;20373;-69
2023/06/22 03:09:00;;;;;;;17.83;11.13;;;21.50;46.20;;;;;;5053852;28;20530;-69
2023/06/22 03:11:26;;;;;;;16.50;10.70;;;21.50;46.60;;;;;;5053690;28;20385;-71
2023/06/22 03:13:52;;;;;;;14.90;10.13;;;21.50;46.70;;;;;;5053662;28;20531;-71
2023/06/22 03:16:18;;;;;;;16.35;10.77;;;21.50;46.80;;;;;;5076546;22;20619;-74
2023/06/22 03:18:44;;;;;;;16.83;9.88;;;21.60;46.60;;;;;;5073891;28;20399;-73
2023/06/22 03:21:10;;;;;;;16.80;10.70;;;21.50;47.10;;;;;;5074012;28;20506;-73
2023/06/22 03:23:36;;;;;;;16.60;11.10;;;21.50;47.70;;;;;;5073996;28;20898;-72
2023/06/22 03:26:02;;;;;;;15.87;11.33;;;21.50;47.80;;;;;;5074477;28;20525;-74
2023/06/22 03:28:27;;;;;;;17.25;11.98;;;21.50;47.50;;;;;;5074137;28;20371;-72
2023/06/22 03:30:53;;;;;;;16.23;11.07;;;21.50;47.80;;;;;;5073821;28;20391;-72
2023/06/22 03:33:18;;;;;;;17.67;11.87;;;21.50;48.20;;;;;;5074231;28;20819;-74
2023/06/22 03:35:44;;;;;;;17.90;12.13;;;21.50;48.00;;;;;;5075063;28;20383;-72
2023/06/22 03:38:09;;;;;;;19.85;11.73;;;21.40;48.40;;;;;;5073937;28;20448;-74
2023/06/22 03:40:35;;;;;;;16.77;12.03;;;21.40;48.80;;;;;;5073376;28;20752;-73
2023/06/22 03:43:00;;;;;;;17.10;12.30;;;21.40;49.30;;;;;;5076045;28;20394;-73
2023/06/22 03:45:26;;;;;;;16.50;12.40;;;21.40;49.70;;;;;;5076392;28;20463;-71
2023/06/22 03:47:51;;;;;;;17.17;12.60;;;21.30;50.20;;;;;;5077522;28;20824;-73
2023/06/22 03:50:20;;;;;;;16.37;11.80;;;21.40;50.30;;;;;;5077825;28;20748;-74
2023/06/22 03:52:45;;;;;;;17.15;12.48;;;21.40;50.20;;;;;;5077185;28;20372;-74
2023/06/22 03:55:11;;;;;;;18.20;11.20;;;21.40;50.20;;;;;;5078487;28;20388;-74
2023/06/22 03:57:37;;;;;;;17.90;11.47;;;21.50;49.40;;;;;;5076700;28;20384;-72
2023/06/22 04:00:05;;;;;;;17.05;12.20;;;21.60;48.60;;;;;;5074877;28;20528;-73
2023/06/22 04:02:31;;;;;;;16.40;12.07;;;21.60;48.60;;;;;;5074305;28;20391;-74
2023/06/22 04:04:56;;;;;;;19.63;12.05;;;21.60;48.80;;;;;;5073913;28;20392;-72
2023/06/22 04:07:22;;;;;;;18.33;12.30;;;21.60;48.00;;;;;;5074399;28;20376;-73
2023/06/22 04:09:47;;;;;;;17.40;11.27;;;21.60;48.00;;;;;;5074094;28;20387;-71
2023/06/22 04:12:13;;;;;;;21.77;12.95;;;21.60;47.70;;;;;;5074854;28;20384;-74
2023/06/22 04:14:39;;;;;;;16.53;11.80;;;21.60;47.70;;;;;;5074620;28;20464;-72
2023/06/22 04:17:04;;;;;;;16.95;10.93;;;21.70;47.20;;;;;;5074744;28;20402;-74
2023/06/22 04:19:30;;;;;;;16.58;12.13;;;21.70;46.30;;;;;;5075237;28;20479;-74
2023/06/22 04:21:56;;;;;;;15.55;11.93;;;21.80;46.30;;;;;;5074392;28;20388;-73
2023/06/22 04:24:21;;;;;;;17.97;12.30;;;21.70;46.20;;;;;;5072966;28;20383;-74
2023/06/22 04:26:47;;;;;;;17.52;11.77;;;21.70;45.90;;;;;;5073546;28;20425;-72
2023/06/22 04:29:13;;;;;;;15.60;12.37;;;21.80;44.90;;;;;;5074495;28;20817;-74
2023/06/22 04:31:39;;;;;;;20.25;12.57;;;21.90;43.90;;;;;;5073660;28;20383;-73
2023/06/22 04:34:06;;;;;;;20.30;12.15;;;21.90;43.40;;;;;;5073862;28;20384;-73
2023/06/22 04:36:39;;;;;;;17.13;12.25;;;21.90;43.30;;;;;;5075239;28;20410;-72
2023/06/22 04:39:06;;;;;;;15.88;12.10;;;21.90;43.40;;;;;;5073019;28;20411;-72
2023/06/22 04:41:41;;;;;;;18.67;12.55;;;21.90;43.60;;;;;;5073709;28;20771;-73
2023/06/22 04:44:23;;;;;;;18.67;13.60;;;22.00;42.50;;;;;;5074074;28;20744;-73
2023/06/22 04:46:53;;;;;;;16.37;11.80;;;22.00;43.20;;;;;;5073183;28;20470;-73
2023/06/22 04:49:20;;;;;;;17.23;12.00;;;22.00;42.30;;;;;;5074320;28;20391;-73
2023/06/22 04:51:45;;;;;;;17.35;12.80;;;22.10;42.10;;;;;;5072539;28;20396;-73
2023/06/22 04:54:11;;;;;;;17.33;11.70;;;22.10;41.80;;;;;;5072592;28;20384;-73
2023/06/22 04:56:37;;;;;;;20.57;13.03;;;22.10;42.10;;;;;;5072971;28;20419;-73
2023/06/22 04:59:05;;;;;;;19.40;12.35;;;22.00;42.70;;;;;;5073420;28;20422;-72
2023/06/22 05:01:31;;;;;;;18.85;12.55;;;21.80;43.60;;;;;;5073655;28;20479;-74
2023/06/22 05:03:58;;;;;;;16.27;11.73;;;21.80;44.60;;;;;;5072991;28;20797;-74
2023/06/22 05:06:26;;;;;;;19.25;12.90;;;21.80;43.80;;;;;;5072858;28;20391;-72
2023/06/22 05:08:59;;;;;;;18.73;12.27;;;21.90;43.10;;;;;;5072085;28;20387;-72
2023/06/22 05:11:26;;;;;;;15.38;11.90;;;21.90;43.20;;;;;;5072316;28;20380;-72
2023/06/22 05:13:51;;;;;;;14.00;11.00;;;22.00;43.10;;;;;;5072077;28;20383;-72
2023/06/22 05:16:17;;;;;;;17.60;12.05;;;22.00;42.70;;;;;;5071229;28;20399;-73
2023/06/22 05:18:43;;;;;;;18.07;11.80;;;22.30;39.60;;;;;;5072554;28;20410;-74
2023/06/22 05:21:09;;;;;;;17.53;11.90;;;22.50;38.60;;;;;;5073072;28;20851;-73
2023/06/22 05:23:34;;;;;;;17.17;11.30;;;22.60;38.20;;;;;;5073853;28;20471;-73
2023/06/22 05:26:00;;;;;;;14.80;11.48;;;22.60;38.00;;;;;;5071590;28;20376;-74
2023/06/22 05:28:26;;;;;;;20.10;12.20;;;22.50;39.20;;;;;;5071181;28;20745;-74
2023/06/22 05:30:51;;;;;;;15.55;11.95;;;22.50;39.30;;;;;;5071757;28;20392;-72
2023/06/22 05:33:17;;;;;;;17.90;11.43;;;22.50;39.30;;;;;;5071376;28;20406;-74
2023/06/22 05:35:43;;;;;;;18.33;11.47;;;22.40;40.50;;;;;;5073063;28;20871;-73
2023/06/22 05:38:08;;;;;;;20.55;11.93;;;22.50;40.30;;;;;;5072008;28;20396;-74
2023/06/22 05:40:34;;;;;;;16.08;11.70;;;22.50;40.40;;;;;;5070608;28;20395;-75
2023/06/22 05:43:01;;;;;;;20.23;12.70;;;22.50;39.60;;;;;;5072427;28;20733;-75
2023/06/22 05:45:27;;;;;;;20.80;12.25;;;22.60;39.00;;;;;;5070661;28;20857;-74
2023/06/22 05:47:52;;;;;;;18.47;11.90;;;22.60;39.20;;;;;;5072769;28;20475;-74
2023/06/22 05:50:18;;;;;;;18.85;12.70;;;22.60;38.40;;;;;;5072332;28;20388;-76
2023/06/22 05:52:43;;;;;;;18.83;12.60;;;22.70;38.80;;;;;;5069382;28;20407;-73
2023/06/22 05:55:12;;;;;;;18.38;12.50;;;22.70;37.80;;;;;;5068727;28;20421;-74
2023/06/22 05:57:38;;;;;;;23.40;13.43;;;22.70;39.40;;;;;;5069688;28;20403;-73
2023/06/22 06:00:08;;;;;;;18.53;13.20;;;22.50;41.60;;;;;;5069853;28;20416;-75
2023/06/22 06:02:33;;;;;;;21.27;13.70;;;22.40;43.00;;;;;;5070589;28;20686;-75
2023/06/22 06:04:59;;;;;;;18.55;12.85;;;22.40;43.20;;;;;;5069332;28;20453;-75
2023/06/22 06:07:26;;;;;;;18.47;12.83;;;22.30;43.70;;;;;;5069197;28;20384;-74
2023/06/22 06:09:51;;;;;;;19.95;13.55;;;22.40;43.50;;;;;;5066256;28;20415;-74
2023/06/22 06:12:17;;;;;;;23.45;14.00;;;22.50;43.70;;;;;;5068121;28;20430;-73
2023/06/22 06:14:42;;;;;;;20.20;13.90;;;22.60;43.10;;;;;;5068739;28;20440;-74
2023/06/22 06:17:08;;;;;;;20.35;13.30;;;22.60;42.80;;;;;;5070172;28;20970;-73
2023/06/22 06:19:33;;;;;;;20.53;13.47;;;22.70;43.00;;;;;;5067730;28;20444;-74
2023/06/22 06:22:00;;;;;;;20.50;14.02;;;22.60;42.40;;;;;;5068096;28;20845;-74
2023/06/22 06:24:26;;;;;;;19.13;13.75;;;22.60;43.10;;;;;;5067477;28;20467;-74
2023/06/22 06:26:51;;;;;;;19.52;13.68;;;22.70;41.40;;;;;;5068141;28;20833;-74
2023/06/22 06:29:17;;;;;;;17.90;12.70;;;22.80;40.80;;;;;;5068721;28;20421;-74
2023/06/22 06:31:42;;;;;;;17.83;12.30;;;23.00;39.50;;;;;;5067035;28;20409;-74
2023/06/22 06:34:08;;;;;;;24.00;12.40;;;23.10;38.60;;;;;;5067941;28;20946;-75
2023/06/22 06:36:33;;;;;;;21.03;12.70;;;23.20;37.50;;;;;;5066835;28;20395;-75
2023/06/22 06:38:59;;;;;;;16.08;12.27;;;23.20;36.80;;;;;;5067928;28;20931;-74
2023/06/22 06:41:24;;;;;;;17.63;11.93;;;23.30;35.80;;;;;;5068262;28;20823;-75
2023/06/22 06:43:50;;;;;;;17.02;12.00;;;23.30;37.20;;;;;;5068311;28;20483;-74
2023/06/22 06:46:16;;;;;;;15.37;12.20;;;23.30;37.20;;;;;;5059914;28;20789;-73
2023/06/22 06:48:41;;;;;;;16.33;11.80;;;23.30;36.60;;;;;;5052329;28;20386;-75
2023/06/22 06:51:09;;;;;;;17.50;12.33;;;23.40;36.40;;;;;;5052825;28;20456;-75
2023/06/22 06:53:36;;;;;;;18.85;12.90;;;23.30;37.20;;;;;;5059148;28;20434;-75
2023/06/22 06:56:02;;;;;;;19.55;12.20;;;23.30;37.60;;;;;;5072955;28;20868;-74
2023/06/22 06:58:28;;;;;;;17.45;12.02;;;23.20;38.80;;;;;;5071597;28;20397;-74
2023/06/22 07:00:54;;;;;;;27.83;13.55;;;23.10;41.40;;;;;;5071161;28;20490;-73
2023/06/22 07:03:19;;;;;;;17.42;11.30;;;23.20;44.20;;;;;;5072239;28;20381;-74
2023/06/22 07:05:45;;;;;;;18.90;12.73;;;23.30;46.10;;;;;;5072160;28;20380;-77
2023/06/22 07:08:10;;;;;;;14.95;11.98;;;23.30;47.90;;;;;;5071814;28;20467;-77
2023/06/22 07:10:36;;;;;;;16.53;12.10;;;23.20;48.80;;;;;;5071183;28;20384;-75
2023/06/22 07:13:02;;;;;;;19.42;12.60;;;23.20;48.30;;;;;;5071992;28;20443;-74
2023/06/22 07:15:27;;;;;;;19.77;13.13;;;23.20;49.30;;;;;;5072272;28;20445;-73
2023/06/22 07:17:53;;;;;;;17.30;12.33;;;23.20;49.40;;;;;;5071586;28;20396;-73
2023/06/22 07:20:19;;;;;;;18.10;12.10;;;23.10;51.30;;;;;;5059223;28;20413;-73
2023/06/22 07:22:45;;;;;;;16.38;13.13;;;23.10;50.70;;;;;;5069961;28;20392;-74
2023/06/22 07:25:13;;;;;;;20.60;14.00;;;23.20;51.50;;;;;;5074257;28;20390;-74
2023/06/22 07:27:43;;;;;;;20.92;15.90;;;23.20;53.00;;;;;;5052326;28;20477;-75
2023/06/22 07:30:10;;;;;;;20.13;14.05;;;23.00;55.90;;;;;;5067322;28;20483;-74
2023/06/22 07:32:36;;;;;;;21.73;15.00;;;22.80;54.70;;;;;;5069884;28;20396;-75
2023/06/22 07:35:02;;;;;;;20.40;16.05;;;22.60;62.30;;;;;;5071330;28;20422;-74
2023/06/22 07:37:28;;;;;;;26.95;15.85;;;22.50;66.40;;;;;;5070684;28;20868;-74
2023/06/22 07:39:58;;;;;;;17.50;14.63;;;22.60;65.60;;;;;;5066223;28;20412;-73
2023/06/22 07:42:24;;;;;;;20.80;16.42;;;22.60;62.50;;;;;;5057100;28;20767;-74
2023/06/22 07:44:53;;;;;;;20.75;16.00;;;22.50;67.30;;;;;;5076717;28;20389;-73
2023/06/22 07:47:19;;;;;;;23.10;16.30;;;22.50;67.20;;;;;;5072496;28;20400;-74
2023/06/22 07:49:45;;;;;;;35.83;27.08;;;22.50;69.10;;;;;;5070941;28;20418;-74
2023/06/22 07:52:11;;;;;;;26.42;19.88;;;22.70;68.50;;;;;;5070936;28;20884;-75
2023/06/22 07:54:36;;;;;;;24.60;18.50;;;22.80;68.60;;;;;;5069573;28;20392;-75
2023/06/22 07:57:02;;;;;;;24.33;16.88;;;22.90;67.20;;;;;;5087115;28;20390;-74
2023/06/22 07:59:28;;;;;;;22.23;17.20;;;23.10;64.20;;;;;;5098019;28;20405;-75
2023/06/22 08:01:55;;;;;;;21.83;16.70;;;23.20;67.60;;;;;;5095938;28;20438;-74
2023/06/22 08:04:21;;;;;;;20.65;15.90;;;23.40;65.10;;;;;;5096594;28;20838;-75
2023/06/22 08:06:46;;;;;;;25.08;17.15;;;23.80;60.60;;;;;;5088323;28;20433;-75
2023/06/22 08:09:12;;;;;;;22.80;15.40;;;24.20;56.20;;;;;;5072926;28;20384;-74
2023/06/22 08:11:38;;;;;;;22.05;15.40;;;24.50;56.50;;;;;;5070306;28;20926;-73
2023/06/22 08:14:03;;;;;;;22.20;15.00;;;24.90;52.40;;;;;;5071078;28;20403;-74
2023/06/22 08:16:29;;;;;;;23.20;15.80;;;25.10;49.30;;;;;;5055631;28;20408;-75
2023/06/22 08:18:55;;;;;;;22.20;16.10;;;24.60;52.30;;;;;;5050505;28;20401;-74
2023/06/22 08:21:20;;;;;;;20.97;16.57;;;24.40;56.30;;;;;;5051479;28;20890;-74
2023/06/22 08:23:46;;;;;;;18.70;15.57;;;24.30;56.90;;;;;;5051222;28;20381;-76
2023/06/22 08:26:11;;;;;;;21.87;15.93;;;24.60;54.00;;;;;;5051591;28;20489;-75
2023/06/22 08:28:37;;;;;;;23.58;16.50;;;24.70;54.50;;;;;;5051547;28;20500;-75
2023/06/22 08:31:03;;;;;;;21.63;14.80;;;25.00;54.20;;;;;;5051489;28;20883;-75
2023/06/22 08:33:30;;;;;;;17.80;14.18;;;25.20;49.00;;;;;;5052412;28;20921;-74
2023/06/22 08:35:56;;;;;;;18.27;13.43;;;25.50;49.20;;;;;;5054091;28;20980;-73
2023/06/22 08:38:21;;;;;;;16.48;11.23;;;25.90;50.40;;;;;;5053244;28;20413;-76
2023/06/22 08:40:47;;;;;;;16.30;12.10;;;26.30;43.60;;;;;;5037503;28;20414;-74
2023/06/22 08:43:12;;;;;;;17.67;11.88;;;26.80;40.10;;;;;;5031165;28;20470;-75
2023/06/22 08:45:38;;;;;;;16.57;12.73;;;27.00;41.30;;;;;;5036669;28;20904;-74
2023/06/22 08:48:04;;;;;;;20.23;14.80;;;26.90;40.90;;;;;;5050473;28;20393;-76
2023/06/22 08:50:29;;;;;;;13.50;9.90;;;26.80;38.00;;;;;;5053416;28;20927;-74
2023/06/22 08:52:55;;;;;;;15.02;10.40;;;26.80;37.30;;;;;;5058877;28;20470;-74
2023/06/22 08:55:20;;;;;;;12.80;9.80;;;26.90;36.40;;;;;;5053133;28;20408;-74
2023/06/22 08:57:46;;;;;;;14.33;9.73;;;27.20;36.20;;;;;;5046839;28;20399;-74
2023/06/22 09:00:16;;;;;;;11.98;8.50;;;27.50;33.80;;;;;;5071578;28;20418;-75
2023/06/22 09:02:42;;;;;;;12.02;9.50;;;27.70;34.50;;;;;;5057019;28;20392;-74
2023/06/22 09:05:10;;;;;;;13.30;10.53;;;27.80;32.20;;;;;;5051076;28;20778;-74
2023/06/22 09:07:35;;;;;;;15.00;10.93;;;27.70;32.10;;;;;;5041592;28;20468;-74
2023/06/22 09:10:01;;;;;;;11.23;9.53;;;27.70;32.50;;;;;;5046888;28;20400;-75
2023/06/22 09:12:27;;;;;;;10.73;8.38;;;27.70;31.90;;;;;;5049352;28;20487;-76
2023/06/22 09:14:53;;;;;;;9.10;8.10;;;27.60;30.50;;;;;;5049406;28;20385;-74
2023/06/22 09:17:18;;;;;;;10.07;8.60;;;27.50;29.70;;;;;;5081787;22;20478;-71
2023/06/22 09:19:44;;;;;;;16.40;9.65;;;27.30;30.70;;;;;;5065249;28;20394;-70
2023/06/22 09:22:10;;;;;;;15.37;9.33;;;27.10;30.90;;;;;;5062102;28;20394;-71
2023/06/22 09:24:35;;;;;;;11.20;9.13;;;27.20;31.30;;;;;;5060528;28;20789;-71
2023/06/22 09:27:01;;;;;;;15.17;9.23;;;27.50;29.80;;;;;;5063860;28;20802;-71
2023/06/22 09:29:26;;;;;;;12.50;8.80;;;27.70;27.90;;;;;;5063626;28;20388;-70
2023/06/22 09:31:55;;;;;;;11.53;9.20;;;28.00;26.40;;;;;;5049151;28;20759;-70
2023/06/22 09:34:21;;;;;;;13.43;8.80;;;28.10;26.40;;;;;;5063710;28;20415;-71
2023/06/22 09:36:47;;;;;;;13.07;9.70;;;28.20;25.80;;;;;;5058739;28;20379;-70
2023/06/22 09:39:12;;;;;;;13.05;9.10;;;28.40;25.00;;;;;;5064768;28;20417;-72
2023/06/22 09:41:38;;;;;;;12.23;8.80;;;28.50;25.60;;;;;;5064592;28;20409;-70
2023/06/22 09:44:04;;;;;;;12.02;8.50;;;28.60;23.60;;;;;;5058747;28;20404;-71
2023/06/22 09:46:29;;;;;;;9.97;8.53;;;28.90;23.60;;;;;;5058489;28;20472;-70
2023/06/22 09:48:55;;;;;;;11.68;8.48;;;29.10;22.30;;;;;;5060996;28;20467;-70
2023/06/22 09:51:21;;;;;;;10.93;8.60;;;29.10;20.90;;;;;;5053197;28;20570;-70
2023/06/22 09:53:47;;;;;;;10.77;8.93;;;28.70;22.90;;;;;;5057047;28;20393;-70
2023/06/22 09:56:14;;;;;;;13.48;8.68;;;28.80;22.00;;;;;;5052399;28;20415;-71
2023/06/22 09:58:44;;;;;;;14.05;9.65;;;28.90;21.90;;;;;;5052890;28;20468;-71
2023/06/22 10:01:10;;;;;;;9.40;8.23;;;29.20;22.10;;;;;;5053980;28;20835;-77
2023/06/22 10:03:36;;;;;;;13.13;9.85;;;29.80;21.00;;;;;;5054515;28;20460;-71
2023/06/22 10:06:02;;;;;;;12.15;10.57;;;30.20;19.80;;;;;;5052683;28;20523;-71
2023/06/22 10:08:28;;;;;;;11.60;9.90;;;30.00;19.80;;;;;;5052517;28;20476;-69
2023/06/22 10:10:54;;;;;;;14.45;9.98;;;29.30;21.10;;;;;;5051103;28;20468;-69
2023/06/22 10:13:19;;;;;;;12.53;9.80;;;29.30;22.10;;;;;;5051476;28;20390;-71
2023/06/22 10:15:49;;;;;;;11.30;10.10;;;29.40;22.80;;;;;;5052498;28;20381;-71
2023/06/22 10:18:16;;;;;;;12.80;9.48;;;29.40;23.50;;;;;;5070966;28;20398;-70
2023/06/22 10:20:41;;;;;;;13.55;10.90;;;29.60;22.90;;;;;;5060458;28;20412;-69
2023/06/22 10:23:07;;;;;;;12.80;10.07;;;29.70;21.10;;;;;;5051350;28;20381;-70
2023/06/22 10:25:32;;;;;;;14.20;10.40;;;29.30;22.30;;;;;;5051820;28;20396;-69
2023/06/22 10:27:58;;;;;;;13.98;10.85;;;29.00;23.30;;;;;;5051133;28;20447;-71
2023/06/22 10:30:23;;;;;;;14.43;12.32;;;28.60;25.40;;;;;;5055444;28;20457;-71
2023/06/22 10:32:49;;;;;;;15.60;11.50;;;28.30;26.60;;;;;;5054886;28;20386;-71
2023/06/22 10:35:15;;;;;;;15.85;12.40;;;28.10;27.90;;;;;;5054715;28;20385;-70
2023/06/22 10:37:43;;;;;;;16.48;12.50;;;27.80;30.20;;;;;;5054429;28;20397;-71
2023/06/22 10:40:09;;;;;;;15.13;12.18;;;27.50;32.00;;;;;;5054241;28;20493;-69
2023/06/22 10:42:35;;;;;;;17.65;12.90;;;27.10;34.30;;;;;;5054065;28;20492;-71
2023/06/22 10:45:00;;;;;;;20.20;13.73;;;27.00;35.10;;;;;;5054077;28;20711;-70
2023/06/22 10:47:26;;;;;;;18.57;13.40;;;26.90;35.30;;;;;;5055292;28;20730;-71
2023/06/22 10:49:51;;;;;;;19.60;14.17;;;26.80;35.80;;;;;;5056318;28;20511;-70
2023/06/22 10:52:17;;;;;;;19.80;14.80;;;26.80;36.80;;;;;;5056098;28;20806;-71
2023/06/22 10:54:42;;;;;;;21.73;15.60;;;26.70;40.10;;;;;;5054024;28;20719;-70
2023/06/22 10:57:08;;;;;;;20.17;15.00;;;26.40;43.00;;;;;;5053608;28;20734;-70
2023/06/22 10:59:33;;;;;;;24.13;17.40;;;26.30;47.50;;;;;;5053310;28;20754;-70
2023/06/22 11:01:59;;;;;;;22.43;17.03;;;26.00;49.60;;;;;;5053611;28;20441;-71
2023/06/22 11:04:24;;;;;;;23.92;17.35;;;25.80;49.90;;;;;;5053549;28;20518;-70
2023/06/22 11:06:50;;;;;;;32.33;20.40;;;25.60;58.50;;;;;;5053545;28;20449;-70
2023/06/22 11:09:20;;;;;;;27.00;19.15;;;25.50;64.60;;;;;;5053931;28;20381;-69
2023/06/22 11:11:50;;;;;;;26.87;20.80;;;25.10;66.30;;;;;;5053922;28;20389;-71
2023/06/22 11:14:16;;;;;;;34.58;24.20;;;24.60;75.10;;;;;;5053581;28;20388;-71
2023/06/22 11:16:41;;;;;;;31.48;23.70;;;24.50;82.10;;;;;;5053154;28;20809;-71
2023/06/22 11:19:07;;;;;;;32.30;24.35;;;24.50;87.20;;;;;;5053467;28;20386;-70
2023/06/22 11:21:32;;;;;;;31.30;24.60;;;24.20;91.70;;;;;;5053046;28;20409;-70
2023/06/22 11:23:59;;;;;;;38.72;28.65;;;24.00;92.50;;;;;;5053555;28;20381;-70
2023/06/22 11:26:27;;;;;;;36.83;28.30;;;23.70;99.20;;;;;;5053780;28;20474;-70
2023/06/22 11:28:53;;;;;;;39.95;29.85;;;23.50;99.90;;;;;;5053589;28;20377;-70
2023/06/22 11:31:18;;;;;;;37.63;30.50;;;23.50;99.90;;;;;;5034904;28;20967;-70
2023/06/22 11:33:45;;;;;;;39.57;29.90;;;23.50;99.90;;;;;;5053012;28;20415;-70
2023/06/22 11:36:11;;;;;;;41.67;30.60;;;23.40;99.90;;;;;;5052968;28;20427;-70
2023/06/22 11:38:39;;;;;;;42.07;32.37;;;23.30;99.90;;;;;;5053065;28;20784;-71
2023/06/22 11:41:07;;;;;;;45.17;32.33;;;23.30;99.90;;;;;;5052082;28;20405;-71
2023/06/22 11:43:33;;;;;;;42.47;33.30;;;23.20;99.90;;;;;;5052881;28;20386;-69
2023/06/22 11:46:00;;;;;;;51.50;35.60;;;23.10;99.90;;;;;;5052483;28;20559;-71
2023/06/22 11:48:26;;;;;;;44.90;34.33;;;23.10;99.90;;;;;;5052535;28;20381;-71
2023/06/22 11:50:52;;;;;;;45.60;34.70;;;23.10;99.90;;;;;;5052514;28;20754;-71
2023/06/22 11:53:17;;;;;;;49.60;36.97;;;23.10;99.90;;;;;;5053079;28;20826;-71
2023/06/22 11:55:46;;;;;;;50.13;37.00;;;23.00;99.90;;;;;;5052802;28;20416;-69
2023/06/22 11:58:11;;;;;;;50.42;37.25;;;23.10;99.90;;;;;;5052584;28;20386;-70
2023/06/22 12:00:37;;;;;;;48.13;35.77;;;23.20;99.90;;;;;;5034450;28;20933;-71
2023/06/22 12:03:03;;;;;;;44.97;36.20;;;23.30;99.90;;;;;;5052375;28;20409;-70
2023/06/22 12:05:29;;;;;;;48.53;36.67;;;23.30;99.90;;;;;;5052664;28;20381;-70
2023/06/22 12:07:55;;;;;;;48.75;35.78;;;23.30;99.90;;;;;;5052996;28;20473;-69
2023/06/22 12:10:25;;;;;;;43.88;34.25;;;23.40;99.90;;;;;;5052774;28;20389;-70
2023/06/22 12:12:51;;;;;;;44.17;31.52;;;23.60;99.90;;;;;;5034042;28;20896;-70
2023/06/22 12:15:16;;;;;;;38.97;30.07;;;23.90;98.90;;;;;;5052408;28;20397;-70
2023/06/22 12:17:42;;;;;;;42.63;32.03;;;24.20;91.10;;;;;;5052409;28;20420;-71
2023/06/22 12:20:08;;;;;;;41.15;31.05;;;24.50;91.40;;;;;;5052870;28;20405;-70
2023/06/22 12:22:34;;;;;;;40.75;31.27;;;24.80;86.00;;;;;;5052385;28;20996;-70
2023/06/22 12:25:00;;;;;;;41.17;33.28;;;24.70;88.20;;;;;;5055629;28;20499;-70
2023/06/22 12:27:26;;;;;;;44.58;32.72;;;24.60;90.30;;;;;;5058428;28;20431;-71